createdAt,value
2023-04-02T00:02:21.511Z,97.79
2023-04-02T00:05:30.238Z,97.66
2023-04-02T00:08:25.033Z,97.23
2023-04-02T00:10:54.664Z,97.26
2023-04-02T00:13:49.006Z,98.08
2023-04-02T00:16:22.020Z,97.38
2023-04-02T00:18:55.717Z,97.42
2023-04-02T00:21:26.322Z,97.22
2023-04-02T00:23:59.001Z,97.16
2023-04-02T00:26:43.966Z,97.14
2023-04-02T00:29:13.001Z,97.73
2023-04-02T00:31:43.054Z,97.30
2023-04-02T00:34:18.456Z,96.97
2023-04-02T00:36:46.650Z,96.96
2023-04-02T00:39:20.366Z,96.63
2023-04-02T00:41:47.152Z,96.17
2023-04-02T00:44:15.825Z,95.88
2023-04-02T00:46:46.967Z,96.66
2023-04-02T00:49:32.563Z,95.98
2023-04-02T00:52:06.375Z,96.91
2023-04-02T00:54:39.990Z,96.56
2023-04-02T00:57:16.103Z,96.29
2023-04-02T01:00:03.037Z,96.20
2023-04-02T01:02:32.387Z,95.95
2023-04-02T01:05:02.366Z,96.06
2023-04-02T01:07:54.977Z,95.86
2023-04-02T01:10:46.122Z,96.07
2023-04-02T01:13:37.856Z,96.38
2023-04-02T01:16:21.658Z,95.37
2023-04-02T01:19:04.371Z,95.75
2023-04-02T01:21:42.533Z,95.75
2023-04-02T01:24:15.110Z,95.49
2023-04-02T01:26:57.604Z,95.31
2023-04-02T01:29:33.384Z,95.19
2023-04-02T01:32:10.732Z,94.63
2023-04-02T01:34:37.955Z,95.13
2023-04-02T01:37:13.396Z,94.97
2023-04-02T01:39:47.681Z,94.56
2023-04-02T01:42:34.302Z,93.84
2023-04-02T01:45:14.028Z,93.81
2023-04-02T01:47:42.689Z,93.00
2023-04-02T01:50:32.280Z,94.11
2023-04-02T01:53:05.099Z,93.27
2023-04-02T01:55:48.790Z,93.23
2023-04-02T01:58:20.103Z,93.39
2023-04-02T02:00:56.454Z,92.43
2023-04-02T02:03:23.320Z,93.21
2023-04-02T02:05:50.760Z,93.48
2023-04-02T02:08:29.067Z,92.89
2023-04-02T02:10:56.443Z,93.72
2023-04-02T02:13:23.124Z,93.98
2023-04-02T02:15:50.417Z,94.49
2023-04-02T02:18:23.180Z,94.45
2023-04-02T02:20:52.167Z,94.16
2023-04-02T02:23:20.931Z,94.05
2023-04-02T02:25:48.134Z,94.03
2023-04-02T02:28:19.162Z,93.77
2023-04-02T02:30:57.748Z,93.47
2023-04-02T02:33:32.605Z,93.28
2023-04-02T02:36:20.643Z,93.51
2023-04-02T02:38:55.688Z,93.52
2023-04-02T02:41:39.775Z,93.27
2023-04-02T02:44:08.890Z,94.23
2023-04-02T02:46:44.919Z,93.96
2023-04-02T02:49:22.252Z,93.78
2023-04-02T02:51:57.554Z,93.92
2023-04-02T02:54:26.325Z,94.16
2023-04-02T02:57:00.678Z,94.88
2023-04-02T02:59:29.848Z,95.10
2023-04-02T03:01:57.008Z,94.66
2023-04-02T03:04:24.481Z,94.54
2023-04-02T03:06:53.218Z,94.53
2023-04-02T03:09:48.190Z,94.08
2023-04-02T03:12:28.290Z,94.10
2023-04-02T03:15:07.544Z,94.10
2023-04-02T03:17:45.982Z,93.57
2023-04-02T03:20:31.203Z,94.33
2023-04-02T03:23:03.759Z,93.86
2023-04-02T03:25:41.485Z,93.31
2023-04-02T03:28:16.993Z,93.50
2023-04-02T03:30:52.970Z,93.59
2023-04-02T03:33:38.205Z,92.89
2023-04-02T03:36:33.651Z,93.55
2023-04-02T03:39:17.301Z,93.00
2023-04-02T03:41:50.385Z,92.55
2023-04-02T03:44:28.728Z,92.60
2023-04-02T03:47:01.493Z,91.48
2023-04-02T03:49:46.485Z,91.76
2023-04-02T03:52:39.514Z,92.11
2023-04-02T03:55:32.320Z,92.21
2023-04-02T03:58:10.006Z,91.18
2023-04-02T04:00:43.838Z,91.25
2023-04-02T04:03:18.098Z,90.79
2023-04-02T04:05:49.928Z,91.53
2023-04-02T04:08:26.374Z,90.68
2023-04-02T04:10:57.065Z,90.79
2023-04-02T04:13:34.946Z,91.00
2023-04-02T04:16:07.901Z,91.41
2023-04-02T04:18:51.804Z,90.40
2023-04-02T04:21:37.110Z,90.12
2023-04-02T04:24:17.317Z,89.22
2023-04-02T04:26:49.640Z,89.54
2023-04-02T04:29:32.024Z,88.35
2023-04-02T04:32:27.139Z,88.25
2023-04-02T04:35:01.075Z,88.68
2023-04-02T04:37:35.148Z,87.48
2023-04-02T04:40:44.881Z,87.16
2023-04-02T04:43:20.416Z,87.09
2023-04-02T04:46:03.389Z,86.56
2023-04-02T04:48:36.682Z,86.61
2023-04-02T04:51:27.100Z,87.08
2023-04-02T04:53:55.740Z,87.12
2023-04-02T04:56:26.708Z,87.32
2023-04-02T04:59:00.908Z,86.81
2023-04-02T05:01:44.236Z,87.44
2023-04-02T05:04:20.626Z,87.69
2023-04-02T05:06:55.646Z,88.33
2023-04-02T05:09:33.185Z,87.62
2023-04-02T05:12:08.330Z,87.65
2023-04-02T05:14:44.548Z,86.53
2023-04-02T05:17:23.662Z,85.18
2023-04-02T05:20:00.441Z,84.20
2023-04-02T05:22:41.335Z,84.68
2023-04-02T05:25:18.249Z,84.55
2023-04-02T05:28:03.701Z,84.90
2023-04-02T05:30:38.516Z,84.46
2023-04-02T05:33:15.770Z,85.14
2023-04-02T05:35:46.675Z,84.38
2023-04-02T05:38:26.553Z,84.96
2023-04-02T05:41:07.686Z,84.93
2023-04-02T05:43:37.111Z,84.37
2023-04-02T05:46:17.451Z,84.78
2023-04-02T05:48:48.587Z,85.20
2023-04-02T05:51:20.901Z,84.86
2023-04-02T05:53:54.991Z,85.63
2023-04-02T05:56:33.171Z,85.51
2023-04-02T05:59:13.719Z,84.46
2023-04-02T06:01:49.621Z,85.29
2023-04-02T06:04:43.729Z,85.53
2023-04-02T06:07:15.776Z,85.28
2023-04-02T06:09:48.891Z,83.86
2023-04-02T06:12:27.418Z,85.33
2023-04-02T06:14:53.970Z,84.69
2023-04-02T06:17:21.133Z,85.88
2023-04-02T06:19:48.413Z,84.58
2023-04-02T06:22:23.139Z,85.61
2023-04-02T06:24:56.222Z,84.71
2023-04-02T06:27:25.209Z,84.59
2023-04-02T06:29:55.638Z,83.88
2023-04-02T06:32:26.865Z,84.54
2023-04-02T06:34:53.626Z,84.38
2023-04-02T06:37:22.708Z,85.09
2023-04-02T06:39:49.228Z,84.50
2023-04-02T06:42:37.536Z,84.78
2023-04-02T06:45:05.350Z,84.39
2023-04-02T06:47:42.439Z,85.48
2023-04-02T06:50:27.846Z,85.34
2023-04-02T06:52:57.907Z,85.13
2023-04-02T06:55:50.970Z,85.32
2023-04-02T06:58:18.596Z,85.03
2023-04-02T07:00:47.103Z,85.44
2023-04-02T07:03:33.922Z,85.58
2023-04-02T07:06:02.577Z,84.84
2023-04-02T07:08:29.041Z,84.21
2023-04-02T07:10:56.315Z,85.22
2023-04-02T07:13:23.721Z,84.78
2023-04-02T07:15:53.608Z,84.53
2023-04-02T07:18:27.335Z,84.65
2023-04-02T07:20:53.845Z,84.57
2023-04-02T07:23:21.168Z,85.91
2023-04-02T07:25:52.918Z,84.88
2023-04-02T07:28:21.988Z,84.62
2023-04-02T07:30:49.448Z,83.66
2023-04-02T07:33:18.278Z,84.75
2023-04-02T07:35:44.949Z,84.83
2023-04-02T07:38:11.555Z,84.52
2023-04-02T07:40:38.063Z,85.85
2023-04-02T07:43:05.343Z,84.96
2023-04-02T07:45:31.943Z,85.13
2023-04-02T07:48:03.919Z,84.43
2023-04-02T07:50:30.597Z,85.75
2023-04-02T07:52:57.020Z,84.78
2023-04-02T07:55:23.444Z,85.53
2023-04-02T07:57:55.079Z,85.53
2023-04-02T08:00:24.256Z,86.43
2023-04-02T08:02:51.189Z,85.25
2023-04-02T08:05:17.994Z,84.74
2023-04-02T08:07:51.954Z,85.63
2023-04-02T08:10:19.183Z,84.49
2023-04-02T08:12:45.763Z,84.94
2023-04-02T08:15:16.058Z,86.25
2023-04-02T08:17:43.310Z,85.56
2023-04-02T08:20:19.039Z,84.28
2023-04-02T08:22:49.378Z,84.14
2023-04-02T08:25:16.636Z,83.88
2023-04-02T08:27:43.206Z,82.86
2023-04-02T08:30:13.022Z,82.97
2023-04-02T08:32:43.095Z,83.09
2023-04-02T08:35:11.564Z,84.59
2023-04-02T08:37:38.437Z,82.97
2023-04-02T08:40:07.326Z,83.39
2023-04-02T08:43:03.863Z,83.44
2023-04-02T08:45:44.212Z,83.11
2023-04-02T08:48:12.837Z,83.69
2023-04-02T08:50:41.355Z,83.07
2023-04-02T08:53:16.749Z,83.33
2023-04-02T08:56:17.750Z,82.65
2023-04-02T08:58:50.994Z,81.80
2023-04-02T09:01:51.831Z,81.85
2023-04-02T09:04:25.162Z,81.50
2023-04-02T09:06:54.996Z,81.76
2023-04-02T09:09:22.580Z,81.02
2023-04-02T09:11:51.855Z,81.88
2023-04-02T09:14:29.454Z,81.62
2023-04-02T09:17:01.026Z,80.40
2023-04-02T09:19:36.543Z,81.13
2023-04-02T09:22:21.498Z,81.65
2023-04-02T09:24:57.224Z,80.06
2023-04-02T09:27:26.317Z,80.38
2023-04-02T09:30:20.437Z,80.06
2023-04-02T09:32:53.927Z,79.46
2023-04-02T09:35:26.561Z,78.81
2023-04-02T09:38:12.517Z,79.58
2023-04-02T09:40:55.164Z,78.82
2023-04-02T09:43:23.804Z,78.98
2023-04-02T09:46:02.494Z,79.17
2023-04-02T09:48:43.922Z,78.97
2023-04-02T09:51:17.029Z,77.24
2023-04-02T09:53:47.124Z,74.90
2023-04-02T09:56:24.245Z,73.78
2023-04-02T09:59:12.252Z,74.34
2023-04-02T10:01:41.968Z,69.95
2023-04-02T10:04:46.748Z,69.03
2023-04-02T10:07:36.946Z,68.61
2023-04-02T10:10:18.449Z,67.88
2023-04-02T10:13:07.476Z,69.29
2023-04-02T10:15:42.246Z,68.00
2023-04-02T10:18:14.782Z,63.22
2023-04-02T10:20:51.076Z,64.89
2023-04-02T10:23:19.007Z,62.04
2023-04-02T10:25:54.384Z,64.15
2023-04-02T10:28:55.135Z,62.68
2023-04-02T10:31:26.232Z,60.67
2023-04-02T10:34:04.150Z,60.17
2023-04-02T10:36:54.342Z,60.59
2023-04-02T10:39:36.830Z,60.19
2023-04-02T10:42:24.163Z,61.78
2023-04-02T10:45:04.525Z,58.72
2023-04-02T10:47:38.005Z,58.36
2023-04-02T10:50:26.117Z,57.18
2023-04-02T10:53:11.430Z,56.47
2023-04-02T10:55:43.642Z,57.20
2023-04-02T10:58:29.029Z,59.01
2023-04-02T11:01:01.871Z,57.28
2023-04-02T11:03:36.893Z,55.25
2023-04-02T11:06:17.114Z,55.59
2023-04-02T11:08:47.253Z,54.93
2023-04-02T11:11:21.363Z,55.49
2023-04-02T11:13:53.759Z,54.54
2023-04-02T11:16:21.042Z,53.30
2023-04-02T11:19:15.484Z,53.30
2023-04-02T11:22:06.883Z,53.83
2023-04-02T11:24:38.140Z,53.12
2023-04-02T11:27:33.634Z,54.71
2023-04-02T11:30:25.627Z,52.17
2023-04-02T11:32:52.245Z,50.57
2023-04-02T11:35:31.190Z,50.24
2023-04-02T11:38:06.263Z,50.01
2023-04-02T11:40:51.044Z,51.27
2023-04-02T11:43:32.456Z,52.60
2023-04-02T11:46:24.840Z,50.98
2023-04-02T11:48:51.597Z,50.36
2023-04-02T11:51:22.275Z,50.78
2023-04-02T11:53:54.296Z,50.44
2023-04-02T11:56:48.089Z,50.60
2023-04-02T11:59:20.545Z,50.91
2023-04-02T12:02:05.270Z,49.35
2023-04-02T12:04:58.093Z,52.53
2023-04-02T12:07:51.923Z,50.47
2023-04-02T12:10:23.742Z,49.82
2023-04-02T12:12:50.922Z,47.24
2023-04-02T12:15:27.001Z,49.30
2023-04-02T12:17:53.737Z,49.33
2023-04-02T12:20:31.521Z,48.06
2023-04-02T12:22:58.552Z,49.63
2023-04-02T12:25:34.441Z,50.16
2023-04-02T12:28:29.062Z,50.23
2023-04-02T12:31:09.134Z,49.87
2023-04-02T12:33:40.611Z,48.66
2023-04-02T12:36:27.882Z,48.43
2023-04-02T12:38:57.112Z,46.80
2023-04-02T12:41:29.993Z,48.86
2023-04-02T12:44:04.863Z,48.21
2023-04-02T12:46:33.589Z,47.71
2023-04-02T12:49:37.722Z,49.28
2023-04-02T12:52:28.452Z,51.85
2023-04-02T12:55:03.771Z,51.67
2023-04-02T12:57:30.141Z,49.97
2023-04-02T12:59:57.859Z,48.52
2023-04-02T13:02:26.954Z,50.46
2023-04-02T13:05:01.400Z,50.76
2023-04-02T13:07:33.422Z,49.62
2023-04-02T13:10:03.440Z,49.29
2023-04-02T13:12:40.137Z,49.69
2023-04-02T13:15:23.432Z,50.60
2023-04-02T13:18:22.575Z,50.19
2023-04-02T13:21:00.316Z,50.94
2023-04-02T13:23:29.619Z,49.57
2023-04-02T13:25:57.352Z,48.85
2023-04-02T13:28:23.973Z,48.76
2023-04-02T13:30:50.628Z,49.23
2023-04-02T13:33:17.308Z,47.24
2023-04-02T13:35:44.544Z,47.16
2023-04-02T13:38:11.202Z,45.67
2023-04-02T13:40:38.583Z,45.74
2023-04-02T13:43:06.432Z,47.03
2023-04-02T13:45:36.513Z,47.46
2023-04-02T13:48:03.831Z,47.42
2023-04-02T13:50:32.922Z,46.71
2023-04-02T13:53:04.310Z,46.56
2023-04-02T13:55:35.337Z,44.30
2023-04-02T13:58:01.741Z,44.34
2023-04-02T14:00:28.160Z,44.94
2023-04-02T14:03:05.649Z,45.35
2023-04-02T14:05:47.035Z,44.79
2023-04-02T14:08:22.654Z,44.92
2023-04-02T14:11:23.317Z,46.41
2023-04-02T14:14:11.176Z,44.86
2023-04-02T14:17:05.561Z,45.47
2023-04-02T14:19:43.745Z,44.95
2023-04-02T14:22:22.379Z,43.47
2023-04-02T14:25:14.213Z,44.44
2023-04-02T14:28:29.753Z,47.38
2023-04-02T14:31:09.259Z,43.58
2023-04-02T14:33:54.606Z,45.40
2023-04-02T14:36:42.717Z,45.80
2023-04-02T14:39:18.228Z,46.55
2023-04-02T14:42:03.983Z,46.35
2023-04-02T14:44:40.339Z,46.57
2023-04-02T14:47:29.203Z,45.90
2023-04-02T14:50:28.024Z,45.48
2023-04-02T14:52:59.661Z,42.87
2023-04-02T14:55:56.285Z,44.35
2023-04-02T14:58:28.753Z,44.65
2023-04-02T15:01:00.519Z,45.30
2023-04-02T15:03:42.939Z,45.87
2023-04-02T15:06:19.434Z,44.34
2023-04-02T15:09:02.113Z,45.69
2023-04-02T15:11:44.936Z,46.68
2023-04-02T15:14:27.934Z,46.12
2023-04-02T15:16:54.364Z,47.01
2023-04-02T15:19:20.830Z,45.59
2023-04-02T15:22:24.428Z,46.93
2023-04-02T15:25:28.183Z,47.05
2023-04-02T15:28:07.361Z,43.91
2023-04-02T15:30:36.318Z,44.76
2023-04-02T15:33:37.942Z,48.08
2023-04-02T15:36:26.628Z,46.53
2023-04-02T15:39:07.725Z,47.01
2023-04-02T15:42:03.878Z,46.09
2023-04-02T15:44:30.457Z,47.46
2023-04-02T15:47:19.942Z,47.44
2023-04-02T15:49:46.264Z,46.75
2023-04-02T15:52:22.069Z,48.35
2023-04-02T15:55:16.356Z,48.87
2023-04-02T15:57:58.070Z,48.49
2023-04-02T16:00:32.578Z,47.89
2023-04-02T16:03:17.278Z,48.22
2023-04-02T16:05:55.686Z,48.44
2023-04-02T16:08:57.633Z,49.49
2023-04-02T16:11:25.994Z,48.72
2023-04-02T16:14:14.539Z,47.37
2023-04-02T16:16:42.432Z,47.60
2023-04-02T16:19:20.751Z,47.66
2023-04-02T16:22:03.451Z,48.73
2023-04-02T16:24:29.863Z,50.12
2023-04-02T16:27:14.988Z,49.17
2023-04-02T16:29:55.018Z,48.43
2023-04-02T16:32:31.018Z,48.70
2023-04-02T16:37:54.088Z,49.85
2023-04-02T16:40:23.453Z,49.08
2023-04-02T16:43:19.919Z,49.73
2023-04-02T16:46:01.818Z,51.11
2023-04-02T16:48:37.019Z,51.34
2023-04-02T16:51:04.189Z,50.23
2023-04-02T16:53:51.125Z,51.06
2023-04-02T16:56:41.160Z,49.42
2023-04-02T16:59:19.749Z,50.24
2023-04-02T17:02:23.762Z,50.40
2023-04-02T17:05:00.669Z,50.35
2023-04-02T17:07:51.438Z,50.80
2023-04-02T17:10:53.449Z,51.69
2023-04-02T17:13:39.696Z,52.45
2023-04-02T17:16:21.891Z,51.55
2023-04-02T17:18:52.434Z,54.30
2023-04-02T17:21:23.953Z,54.01
2023-04-02T17:24:19.354Z,53.70
2023-04-02T17:26:49.781Z,52.30
2023-04-02T17:29:21.767Z,53.97
2023-04-02T17:31:50.338Z,54.12
2023-04-02T17:34:18.601Z,54.33
2023-04-02T17:36:58.927Z,53.99
2023-04-02T17:40:05.402Z,54.63
2023-04-02T17:42:50.230Z,54.67
2023-04-02T17:45:19.639Z,55.18
2023-04-02T17:48:01.270Z,55.69
2023-04-02T17:50:48.643Z,55.74
2023-04-02T17:53:28.841Z,55.94
2023-04-02T17:56:18.699Z,56.23
2023-04-02T17:59:12.241Z,56.50
2023-04-02T18:02:07.424Z,56.40
2023-04-02T18:04:50.686Z,56.93
2023-04-02T18:07:29.050Z,57.12
2023-04-02T18:09:58.449Z,56.84
2023-04-02T18:12:31.894Z,57.47
2023-04-02T18:15:33.618Z,57.73
2023-04-02T18:18:15.672Z,58.07
2023-04-02T18:20:51.915Z,57.83
2023-04-02T18:23:25.601Z,57.96
2023-04-02T18:25:57.936Z,59.03
2023-04-02T18:28:37.314Z,57.27
2023-04-02T18:31:16.668Z,57.95
2023-04-02T18:34:19.685Z,59.35
2023-04-02T18:37:33.045Z,59.42
2023-04-02T18:40:19.805Z,60.24
2023-04-02T18:43:06.876Z,60.32
2023-04-02T18:45:51.637Z,61.45
2023-04-02T18:48:30.981Z,60.70
2023-04-02T18:51:00.412Z,60.73
2023-04-02T18:53:31.357Z,61.72
2023-04-02T18:56:02.576Z,60.38
2023-04-02T18:58:46.213Z,61.04
2023-04-02T19:01:18.396Z,61.55
2023-04-02T19:04:02.723Z,60.82
2023-04-02T19:06:38.859Z,61.18
2023-04-02T19:09:16.864Z,61.29
2023-04-02T19:11:43.412Z,61.90
2023-04-02T19:14:13.329Z,60.50
2023-04-02T19:17:10.516Z,61.60
2023-04-02T19:19:52.400Z,61.27
2023-04-02T19:22:33.421Z,61.66
2023-04-02T19:25:10.713Z,62.60
2023-04-02T19:27:51.432Z,62.52
2023-04-02T19:30:56.008Z,61.77
2023-04-02T19:33:52.365Z,62.10
2023-04-02T19:36:21.448Z,61.91
2023-04-02T19:38:56.583Z,62.45
2023-04-02T19:41:48.066Z,62.66
2023-04-02T19:44:16.281Z,63.34
2023-04-02T19:46:43.387Z,63.46
2023-04-02T19:49:16.637Z,63.20
2023-04-02T19:51:44.009Z,64.20
2023-04-02T19:54:10.725Z,63.28
2023-04-02T19:56:37.186Z,64.76
2023-04-02T19:59:17.102Z,64.47
2023-04-02T20:01:45.159Z,64.49
2023-04-02T20:04:11.634Z,63.78
2023-04-02T20:06:38.193Z,64.11
2023-04-02T20:09:04.602Z,64.48
2023-04-02T20:11:31.287Z,64.16
2023-04-02T20:13:57.712Z,65.00
2023-04-02T20:16:24.205Z,64.54
2023-04-02T20:18:51.346Z,64.69
2023-04-02T20:21:17.991Z,64.49
2023-04-02T20:23:44.766Z,65.44
2023-04-02T20:26:12.689Z,65.60
2023-04-02T20:28:39.397Z,65.42
2023-04-02T20:31:14.482Z,65.11
2023-04-02T20:33:41.978Z,64.92
2023-04-02T20:36:14.925Z,65.87
2023-04-02T20:38:41.672Z,65.79
2023-04-02T20:41:09.116Z,65.44
2023-04-02T20:43:37.467Z,65.75
2023-04-02T20:46:06.518Z,65.13
2023-04-02T20:48:36.372Z,65.52
2023-04-02T20:51:05.254Z,64.61
2023-04-02T20:53:34.389Z,64.06
2023-04-02T20:56:15.654Z,65.18
2023-04-02T20:58:43.119Z,65.26
2023-04-02T21:01:19.223Z,64.82
2023-04-02T21:03:45.816Z,64.93
2023-04-02T21:06:23.857Z,65.84
2023-04-02T21:08:51.122Z,66.17
2023-04-02T21:11:18.751Z,65.51
2023-04-02T21:13:45.646Z,66.20
2023-04-02T21:16:23.352Z,65.34
2023-04-02T21:18:52.504Z,65.65
2023-04-02T21:21:21.075Z,66.03
2023-04-02T21:23:47.959Z,65.17
2023-04-02T21:26:16.983Z,66.56
2023-04-02T21:28:45.175Z,65.36
2023-04-02T21:31:17.844Z,64.65
2023-04-02T21:33:52.469Z,64.96
2023-04-02T21:36:27.619Z,64.97
2023-04-02T21:38:56.878Z,64.89
2023-04-02T21:41:26.505Z,66.10
2023-04-02T21:43:54.413Z,65.27
2023-04-02T21:46:23.583Z,65.62
2023-04-02T21:48:51.341Z,65.35
2023-04-02T21:51:23.373Z,64.85
2023-04-02T21:53:50.880Z,64.23
2023-04-02T21:56:19.863Z,65.31
2023-04-02T21:58:47.568Z,65.83
2023-04-02T22:01:26.711Z,65.16
2023-04-02T22:03:55.362Z,65.46
2023-04-02T22:06:23.586Z,65.00
2023-04-02T22:08:59.169Z,66.00
2023-04-02T22:11:31.748Z,65.51
2023-04-02T22:13:58.970Z,66.08
2023-04-02T22:16:28.131Z,65.85
2023-04-02T22:18:58.640Z,66.90
2023-04-02T22:21:26.288Z,66.55
2023-04-02T22:23:52.878Z,66.48
2023-04-02T22:26:21.490Z,66.11
2023-04-02T22:28:47.926Z,65.66
2023-04-02T22:31:17.147Z,66.87
2023-04-02T22:33:45.818Z,66.60
2023-04-02T22:36:13.576Z,67.20
2023-04-02T22:38:40.792Z,67.08
2023-04-02T22:41:11.898Z,66.57
2023-04-02T22:43:39.234Z,67.03
2023-04-02T22:46:06.814Z,67.20
2023-04-02T22:48:33.766Z,67.47
2023-04-02T22:51:00.487Z,68.11
2023-04-02T22:53:27.390Z,68.21
2023-04-02T22:55:55.771Z,67.76
2023-04-02T22:58:22.607Z,67.57
2023-04-02T23:00:49.113Z,67.61
2023-04-02T23:03:15.547Z,68.18
2023-04-02T23:05:42.592Z,67.30
2023-04-02T23:08:09.230Z,68.30
2023-04-02T23:10:36.067Z,66.97
2023-04-02T23:13:02.745Z,68.41
2023-04-02T23:15:29.132Z,68.24
2023-04-02T23:17:55.648Z,67.53
2023-04-02T23:20:22.175Z,67.43
2023-04-02T23:22:48.696Z,67.68
2023-04-02T23:25:15.242Z,67.58
2023-04-02T23:27:41.804Z,67.43
2023-04-02T23:30:08.701Z,67.98
2023-04-02T23:32:35.434Z,67.41
2023-04-02T23:35:01.935Z,67.00
2023-04-02T23:37:28.356Z,67.90
2023-04-02T23:39:54.805Z,67.01
2023-04-02T23:42:21.290Z,67.34
2023-04-02T23:44:47.697Z,67.67
2023-04-02T23:47:14.119Z,67.93
2023-04-02T23:49:42.128Z,68.18
2023-04-02T23:52:08.626Z,68.95
2023-04-02T23:54:35.207Z,68.71
2023-04-02T23:57:01.694Z,68.20
2023-04-02T23:59:28.178Z,68.20
